Камышин

Карта отелей и гостиниц, располагающихся рядом с аэропортом Камышин :

Камышин Волгоградская область 50° 3' 18.8388" N, 45° 21' 50.8788" E
Код аэродрома ИКАО
URWK
Код аэродрома RU
УРВК
Координаты
N50.05523° E045.36413°
Превышение над уровнем моря
114
Основная полоса
11/29
Курс магнитный
110/290
Длина основной ВПП
730
Ширина основной ВПП
90
Покрытие основной ВПП
Нетвёрдое (грунт)
Освещение ВПП
Нет
Тип: 
Аэродром
Класс аэродрома: 
Принадлежность: 
ГА
Статус: 
Действующий
Сайт: 
wwww.apra34.ru
E-mail аэродрома: 
sapsanra@mail.ru
Страна: 
Россия
Регион: 
Волгоградская область
Город: 
Дополнительная информация: 
Нкр.=(100)м, ВС до 42 тонн. ОПРС:387-"KM" ликвидирована. Ведутся работы по монтажу аппаратуры VOR. Старая f=118.800 с позывным «Кактус» ликвидированы.

Найти трансфер

С помощью этой формы Вы можете найти трансфер из аэропорта Камышин в город, аэропорт или вокзал:

Карта места

Javascript is required to view this map.

Погода в аэропортах:

Авиационная погода в Мирном

Регион: 
Погода METAR: 
UERR 050800Z 06003MPS 0600 HZ VV005 21/13 Q1005 R25/CLRD60 NOSIG RMK QBB150 QFE723/0964
Время наблюдения
2021-08-05T08:00:00Z
Температура C
21.0
Точка росы
13.0
Направление ветра
60
Скорость ветра (узлы)
6
Метео видимость
0.37
Явления погоды
HZ
Условия полета
LIFR
Аэропорт подробнее: 

Авиационная погода в аэропорту Новый

Регион: 
Погода METAR: 
UHHH 050800Z 05002MPS 010V090 9999 -SHRA VCTS SCT033CB 22/21 Q1002 R23R/290045 TEMPO 3100 -TSRA RMK QFE745/0994
Время наблюдения
2021-08-05T08:00:00Z
Температура C
22.0
Точка росы
21.0
Направление ветра
50
Скорость ветра (узлы)
4
Метео видимость
6.21
Явления погоды
-SHRA VCTS
Условия полета
VFR
Аэропорт подробнее: 

Авиационная погода в Брянске

Регион: 
Погода METAR: 
UUBP 050800Z 15002MPS 9999 -SHRA BKN035CB 16/16 Q1015 R16/290155 NOSIG RMK QFE743/0991
Время наблюдения
2021-08-05T08:00:00Z
Температура C
16.0
Точка росы
16.0
Направление ветра
150
Скорость ветра (узлы)
4
Метео видимость
6.21
Явления погоды
-SHRA
Условия полета
VFR
Аэропорт подробнее: 

Авиационная погода в аэропорту Алыкель

Регион: 
Погода METAR: 
UOOO 050800Z 02004MPS 1000 R01/1000N FU SCT024 19/14 Q1015 R01/CLRD60 NOSIG RMK QFE747/0996
Время наблюдения
2021-08-05T08:00:00Z
Температура C
19.0
Точка росы
14.0
Направление ветра
20
Скорость ветра (узлы)
8
Метео видимость
0.62
Явления погоды
FU
Условия полета
LIFR
Аэропорт подробнее: